sensor_id;sensor_type;location;lat;lon;timestamp;P1;durP1;ratioP1;P2;durP2;ratioP2
77821;SDS011;67012;53.712;10.728;2023-02-15T06:51:21;41.28;;;15.55;;
77821;SDS011;67012;53.712;10.728;2023-02-15T06:53:46;39.90;;;14.17;;
77821;SDS011;67012;53.712;10.728;2023-02-15T06:56:11;23.57;;;10.30;;
77821;SDS011;67012;53.712;10.728;2023-02-15T06:58:37;30.23;;;12.20;;
77821;SDS011;67012;53.712;10.728;2023-02-15T07:01:03;27.95;;;11.30;;
77821;SDS011;67012;53.712;10.728;2023-02-15T07:05:56;31.80;;;15.45;;
77821;SDS011;67012;53.712;10.728;2023-02-15T07:08:22;24.23;;;10.77;;
77821;SDS011;67012;53.712;10.728;2023-02-15T07:10:48;24.70;;;12.00;;
77821;SDS011;67012;53.712;10.728;2023-02-15T07:13:14;34.25;;;14.63;;
77821;SDS011;67012;53.712;10.728;2023-02-15T07:15:39;21.10;;;9.70;;
77821;SDS011;67012;53.712;10.728;2023-02-15T07:18:04;38.07;;;11.83;;
77821;SDS011;67012;53.712;10.728;2023-02-15T07:20:30;26.25;;;12.43;;
77821;SDS011;67012;53.712;10.728;2023-02-15T07:22:55;36.87;;;13.00;;
77821;SDS011;67012;53.712;10.728;2023-02-15T07:25:20;23.03;;;11.63;;
77821;SDS011;67012;53.712;10.728;2023-02-15T07:27:45;33.87;;;11.67;;
77821;SDS011;67012;53.712;10.728;2023-02-15T07:30:11;28.60;;;10.67;;
77821;SDS011;67012;53.712;10.728;2023-02-15T07:32:37;25.02;;;11.27;;
77821;SDS011;67012;53.712;10.728;2023-02-15T07:35:22;27.55;;;11.00;;
77821;SDS011;67012;53.712;10.728;2023-02-15T07:37:47;43.37;;;12.53;;
77821;SDS011;67012;53.712;10.728;2023-02-15T07:40:13;33.07;;;14.10;;
77821;SDS011;67012;53.712;10.728;2023-02-15T07:42:38;30.80;;;12.43;;
77821;SDS011;67012;53.712;10.728;2023-02-15T07:45:03;28.17;;;12.27;;
77821;SDS011;67012;53.712;10.728;2023-02-15T07:47:28;30.23;;;13.63;;
77821;SDS011;67012;53.712;10.728;2023-02-15T07:49:53;26.37;;;10.60;;
77821;SDS011;67012;53.712;10.728;2023-02-15T07:52:19;23.67;;;12.03;;
77821;SDS011;67012;53.712;10.728;2023-02-15T07:54:44;22.43;;;9.00;;
77821;SDS011;67012;53.712;10.728;2023-02-15T07:57:09;26.80;;;13.03;;
77821;SDS011;67012;53.712;10.728;2023-02-15T07:59:34;28.33;;;13.63;;
77821;SDS011;67012;53.712;10.728;2023-02-15T08:01:59;23.07;;;10.77;;
77821;SDS011;67012;53.712;10.728;2023-02-15T08:04:24;26.30;;;12.37;;
77821;SDS011;67012;53.712;10.728;2023-02-15T08:06:52;28.77;;;13.10;;
77821;SDS011;67012;53.712;10.728;2023-02-15T08:09:17;30.02;;;13.80;;
77821;SDS011;67012;53.712;10.728;2023-02-15T08:11:42;28.90;;;14.10;;
77821;SDS011;67012;53.712;10.728;2023-02-15T08:14:09;25.47;;;14.03;;
77821;SDS011;67012;53.712;10.728;2023-02-15T08:19:07;25.65;;;12.20;;
77821;SDS011;67012;53.712;10.728;2023-02-15T08:21:33;25.17;;;12.15;;
77821;SDS011;67012;53.712;10.728;2023-02-15T08:23:58;30.08;;;11.68;;
77821;SDS011;67012;53.712;10.728;2023-02-15T08:26:25;20.25;;;10.13;;
77821;SDS011;67012;53.712;10.728;2023-02-15T08:28:50;24.30;;;11.48;;
77821;SDS011;67012;53.712;10.728;2023-02-15T08:31:16;33.47;;;13.02;;
77821;SDS011;67012;53.712;10.728;2023-02-15T08:33:42;31.23;;;12.80;;
77821;SDS011;67012;53.712;10.728;2023-02-15T08:36:09;27.42;;;12.38;;
77821;SDS011;67012;53.712;10.728;2023-02-15T08:38:34;29.80;;;13.32;;
77821;SDS011;67012;53.712;10.728;2023-02-15T08:41:22;31.83;;;13.07;;
77821;SDS011;67012;53.712;10.728;2023-02-15T08:43:46;38.20;;;12.45;;
77821;SDS011;67012;53.712;10.728;2023-02-15T08:46:12;27.05;;;13.80;;
77821;SDS011;67012;53.712;10.728;2023-02-15T08:48:37;24.88;;;11.68;;
77821;SDS011;67012;53.712;10.728;2023-02-15T08:51:10;25.70;;;10.53;;
77821;SDS011;67012;53.712;10.728;2023-02-15T08:53:36;33.72;;;13.07;;
77821;SDS011;67012;53.712;10.728;2023-02-15T08:56:01;26.33;;;12.38;;
77821;SDS011;67012;53.712;10.728;2023-02-15T08:58:27;31.23;;;12.83;;
77821;SDS011;67012;53.712;10.728;2023-02-15T09:00:53;32.17;;;14.63;;
77821;SDS011;67012;53.712;10.728;2023-02-15T09:03:18;26.10;;;12.73;;
77821;SDS011;67012;53.712;10.728;2023-02-15T09:05:43;28.80;;;11.33;;
77821;SDS011;67012;53.712;10.728;2023-02-15T09:08:08;29.07;;;11.70;;
77821;SDS011;67012;53.712;10.728;2023-02-15T09:10:33;30.47;;;13.03;;
77821;SDS011;67012;53.712;10.728;2023-02-15T09:12:58;24.67;;;10.40;;
77821;SDS011;67012;53.712;10.728;2023-02-15T09:15:24;26.43;;;12.50;;
77821;SDS011;67012;53.712;10.728;2023-02-15T09:17:49;26.07;;;10.63;;
77821;SDS011;67012;53.712;10.728;2023-02-15T09:20:14;37.80;;;11.70;;
77821;SDS011;67012;53.712;10.728;2023-02-15T09:22:39;20.97;;;11.13;;
77821;SDS011;67012;53.712;10.728;2023-02-15T09:25:05;24.20;;;10.53;;
77821;SDS011;67012;53.712;10.728;2023-02-15T09:27:30;26.77;;;13.05;;
77821;SDS011;67012;53.712;10.728;2023-02-15T09:29:55;19.90;;;10.27;;
77821;SDS011;67012;53.712;10.728;2023-02-15T09:32:20;28.27;;;10.60;;
77821;SDS011;67012;53.712;10.728;2023-02-15T09:34:47;27.45;;;11.50;;
77821;SDS011;67012;53.712;10.728;2023-02-15T09:37:12;25.90;;;12.60;;
77821;SDS011;67012;53.712;10.728;2023-02-15T09:39:37;26.43;;;12.67;;
77821;SDS011;67012;53.712;10.728;2023-02-15T09:51:54;20.07;;;10.43;;
77821;SDS011;67012;53.712;10.728;2023-02-15T09:54:27;25.30;;;12.60;;
77821;SDS011;67012;53.712;10.728;2023-02-15T09:56:58;30.40;;;12.60;;
77821;SDS011;67012;53.712;10.728;2023-02-15T10:19:49;43.07;;;12.77;;
77821;SDS011;67012;53.712;10.728;2023-02-15T10:22:21;29.70;;;13.23;;
77821;SDS011;67012;53.712;10.728;2023-02-15T10:27:17;34.83;;;11.20;;
77821;SDS011;67012;53.712;10.728;2023-02-15T10:32:28;37.83;;;11.70;;
77821;SDS011;67012;53.712;10.728;2023-02-15T10:37:54;49.63;;;14.35;;
77821;SDS011;67012;53.712;10.728;2023-02-15T10:40:46;40.33;;;14.80;;
77821;SDS011;67012;53.712;10.728;2023-02-15T10:43:08;25.85;;;13.52;;
77821;SDS011;67012;53.712;10.728;2023-02-15T10:50:43;22.30;;;12.00;;
77821;SDS011;67012;53.712;10.728;2023-02-15T10:53:17;25.48;;;11.07;;
77821;SDS011;67012;53.712;10.728;2023-02-15T11:00:51;24.35;;;13.32;;
77821;SDS011;67012;53.712;10.728;2023-02-15T11:03:36;20.08;;;10.82;;
77821;SDS011;67012;53.712;10.728;2023-02-15T11:06:17;31.95;;;12.35;;
77821;SDS011;67012;53.712;10.728;2023-02-15T11:08:44;31.80;;;13.73;;
77821;SDS011;67012;53.712;10.728;2023-02-15T11:11:21;30.48;;;13.10;;
77821;SDS011;67012;53.712;10.728;2023-02-15T11:13:48;27.40;;;13.35;;
77821;SDS011;67012;53.712;10.728;2023-02-15T11:18:45;24.27;;;12.47;;
77821;SDS011;67012;53.712;10.728;2023-02-15T11:23:43;40.60;;;15.32;;
77821;SDS011;67012;53.712;10.728;2023-02-15T11:26:13;27.65;;;12.27;;
77821;SDS011;67012;53.712;10.728;2023-02-15T11:28:41;35.65;;;13.70;;
77821;SDS011;67012;53.712;10.728;2023-02-15T11:31:12;26.23;;;12.65;;
77821;SDS011;67012;53.712;10.728;2023-02-15T11:33:38;27.55;;;12.35;;
77821;SDS011;67012;53.712;10.728;2023-02-15T11:36:08;25.50;;;12.15;;
77821;SDS011;67012;53.712;10.728;2023-02-15T11:38:36;29.38;;;12.27;;
77821;SDS011;67012;53.712;10.728;2023-02-15T11:41:11;28.45;;;13.15;;
77821;SDS011;67012;53.712;10.728;2023-02-15T11:43:41;33.53;;;11.52;;
77821;SDS011;67012;53.712;10.728;2023-02-15T11:46:08;17.20;;;8.95;;
77821;SDS011;67012;53.712;10.728;2023-02-15T11:48:34;30.85;;;13.10;;
77821;SDS011;67012;53.712;10.728;2023-02-15T11:50:59;23.43;;;11.60;;
77821;SDS011;67012;53.712;10.728;2023-02-15T11:53:25;23.10;;;12.32;;
77821;SDS011;67012;53.712;10.728;2023-02-15T11:55:53;24.95;;;13.45;;
77821;SDS011;67012;53.712;10.728;2023-02-15T12:00:47;24.17;;;12.40;;
77821;SDS011;67012;53.712;10.728;2023-02-15T12:03:15;23.65;;;12.60;;
77821;SDS011;67012;53.712;10.728;2023-02-15T12:05:42;20.80;;;11.38;;
77821;SDS011;67012;53.712;10.728;2023-02-15T12:08:12;26.55;;;11.38;;
77821;SDS011;67012;53.712;10.728;2023-02-15T12:10:51;24.45;;;12.80;;
77821;SDS011;67012;53.712;10.728;2023-02-15T12:13:18;23.45;;;11.35;;
77821;SDS011;67012;53.712;10.728;2023-02-15T12:15:48;24.80;;;11.70;;
77821;SDS011;67012;53.712;10.728;2023-02-15T12:21:03;25.40;;;12.52;;
77821;SDS011;67012;53.712;10.728;2023-02-15T12:23:30;23.35;;;12.50;;
77821;SDS011;67012;53.712;10.728;2023-02-15T12:25:56;25.65;;;13.10;;
77821;SDS011;67012;53.712;10.728;2023-02-15T12:28:35;24.50;;;13.38;;
77821;SDS011;67012;53.712;10.728;2023-02-15T12:31:02;26.20;;;11.13;;
77821;SDS011;67012;53.712;10.728;2023-02-15T12:33:34;26.15;;;13.48;;
77821;SDS011;67012;53.712;10.728;2023-02-15T12:36:09;23.88;;;11.40;;
77821;SDS011;67012;53.712;10.728;2023-02-15T12:38:36;24.70;;;12.48;;
77821;SDS011;67012;53.712;10.728;2023-02-15T12:41:03;23.38;;;11.45;;
77821;SDS011;67012;53.712;10.728;2023-02-15T12:43:36;19.92;;;9.25;;
77821;SDS011;67012;53.712;10.728;2023-02-15T12:48:45;23.88;;;12.00;;
77821;SDS011;67012;53.712;10.728;2023-02-15T12:51:12;24.95;;;12.93;;
77821;SDS011;67012;53.712;10.728;2023-02-15T12:53:38;19.48;;;10.05;;
77821;SDS011;67012;53.712;10.728;2023-02-15T12:56:05;21.90;;;11.57;;
77821;SDS011;67012;53.712;10.728;2023-02-15T12:58:49;22.95;;;11.70;;
77821;SDS011;67012;53.712;10.728;2023-02-15T13:01:19;23.00;;;12.63;;
77821;SDS011;67012;53.712;10.728;2023-02-15T13:06:14;22.98;;;12.75;;
77821;SDS011;67012;53.712;10.728;2023-02-15T13:09:25;26.70;;;14.13;;
77821;SDS011;67012;53.712;10.728;2023-02-15T13:11:30;27.08;;;13.68;;
77821;SDS011;67012;53.712;10.728;2023-02-15T13:14:00;25.35;;;13.32;;
77821;SDS011;67012;53.712;10.728;2023-02-15T13:16:36;28.67;;;13.38;;
77821;SDS011;67012;53.712;10.728;2023-02-15T13:19:03;23.20;;;11.55;;
77821;SDS011;67012;53.712;10.728;2023-02-15T13:21:33;27.55;;;13.07;;
77821;SDS011;67012;53.712;10.728;2023-02-15T13:24:01;26.00;;;14.07;;
77821;SDS011;67012;53.712;10.728;2023-02-15T13:26:29;27.27;;;14.20;;
77821;SDS011;67012;53.712;10.728;2023-02-15T13:28:55;21.67;;;10.90;;
77821;SDS011;67012;53.712;10.728;2023-02-15T13:31:26;26.95;;;13.60;;
77821;SDS011;67012;53.712;10.728;2023-02-15T13:33:56;28.75;;;14.40;;
77821;SDS011;67012;53.712;10.728;2023-02-15T13:41:22;26.93;;;13.83;;
77821;SDS011;67012;53.712;10.728;2023-02-15T14:02:30;21.80;;;10.97;;
77821;SDS011;67012;53.712;10.728;2023-02-15T14:12:41;27.85;;;13.95;;
77821;SDS011;67012;53.712;10.728;2023-02-15T14:15:24;36.25;;;17.58;;
77821;SDS011;67012;53.712;10.728;2023-02-15T14:20:24;31.95;;;15.07;;
77821;SDS011;67012;53.712;10.728;2023-02-15T14:23:00;28.20;;;14.50;;
77821;SDS011;67012;53.712;10.728;2023-02-15T14:25:31;25.00;;;12.73;;
77821;SDS011;67012;53.712;10.728;2023-02-15T14:30:26;29.70;;;14.50;;
77821;SDS011;67012;53.712;10.728;2023-02-15T14:33:06;30.02;;;14.30;;
77821;SDS011;67012;53.712;10.728;2023-02-15T14:35:32;33.58;;;15.00;;
77821;SDS011;67012;53.712;10.728;2023-02-15T14:38:06;27.80;;;13.27;;
77821;SDS011;67012;53.712;10.728;2023-02-15T14:48:30;34.23;;;17.07;;
77821;SDS011;67012;53.712;10.728;2023-02-15T14:50:56;35.78;;;16.15;;
77821;SDS011;67012;53.712;10.728;2023-02-15T14:59:28;37.05;;;15.07;;
77821;SDS011;67012;53.712;10.728;2023-02-15T15:01:32;35.30;;;14.65;;
77821;SDS011;67012;53.712;10.728;2023-02-15T15:04:04;27.92;;;13.32;;
77821;SDS011;67012;53.712;10.728;2023-02-15T15:06:31;28.92;;;14.63;;
77821;SDS011;67012;53.712;10.728;2023-02-15T15:09:00;36.85;;;16.30;;
77821;SDS011;67012;53.712;10.728;2023-02-15T15:11:38;33.28;;;15.55;;
77821;SDS011;67012;53.712;10.728;2023-02-15T15:14:04;39.38;;;16.63;;
77821;SDS011;67012;53.712;10.728;2023-02-15T15:18:54;33.53;;;15.30;;
77821;SDS011;67012;53.712;10.728;2023-02-15T15:24:05;39.83;;;17.63;;
77821;SDS011;67012;53.712;10.728;2023-02-15T15:26:31;40.15;;;15.50;;
77821;SDS011;67012;53.712;10.728;2023-02-15T15:29:05;38.95;;;18.20;;
77821;SDS011;67012;53.712;10.728;2023-02-15T15:31:35;36.30;;;16.85;;
77821;SDS011;67012;53.712;10.728;2023-02-15T15:41:39;42.28;;;18.83;;
77821;SDS011;67012;53.712;10.728;2023-02-15T15:49:34;37.78;;;16.20;;
77821;SDS011;67012;53.712;10.728;2023-02-15T15:52:02;48.60;;;21.05;;
77821;SDS011;67012;53.712;10.728;2023-02-15T15:54:28;31.10;;;14.18;;
77821;SDS011;67012;53.712;10.728;2023-02-15T15:56:55;30.00;;;14.30;;
77821;SDS011;67012;53.712;10.728;2023-02-15T15:59:21;44.28;;;20.15;;
77821;SDS011;67012;53.712;10.728;2023-02-15T16:01:48;39.22;;;18.08;;
77821;SDS011;67012;53.712;10.728;2023-02-15T16:04:14;46.70;;;19.08;;
77821;SDS011;67012;53.712;10.728;2023-02-15T16:06:39;45.75;;;19.85;;
77821;SDS011;67012;53.712;10.728;2023-02-15T16:09:24;38.63;;;17.08;;
77821;SDS011;67012;53.712;10.728;2023-02-15T16:11:51;43.47;;;19.10;;
77821;SDS011;67012;53.712;10.728;2023-02-15T16:14:20;35.72;;;17.15;;
77821;SDS011;67012;53.712;10.728;2023-02-15T16:16:49;42.38;;;19.55;;
77821;SDS011;67012;53.712;10.728;2023-02-15T16:19:20;31.50;;;15.50;;
77821;SDS011;67012;53.712;10.728;2023-02-15T16:21:46;40.83;;;18.15;;
77821;SDS011;67012;53.712;10.728;2023-02-15T16:29:26;29.08;;;13.38;;
